Data for 04/17/2015

Time Sea-Level Adjusted Pressure Absolute Pressure Temperature Relative Humidity Dew Point   
(mb) (inHg) (mb) (inHg) (C) (F) (%) (C) (F)
00:05 1024 30.24 854 25.22 1.5 34.7 71 -3.2 26.3
00:10 1024 30.24 854 25.22 1 33.7 73 -3.4 25.9
00:15 1024 30.24 854 25.22 1.1 34 71 -3.6 25.6
00:20 1024 30.24 854 25.22 1 33.8 72 -3.5 25.8
00:25 1024 30.24 854 25.22 0.7 33.3 73 -3.6 25.5
00:30 1025 30.27 854 25.22 0.9 33.6 71 -3.8 25.1
00:35 1025 30.27 854 25.22 0.7 33.2 75 -3.3 26.1
00:40 1025 30.27 854 25.22 0.2 32.4 76 -3.6 25.5
00:45 1025 30.27 854 25.22 0.6 33.1 72 -3.8 25.2
00:50 1025 30.27 854 25.22 1 33.8 72 -3.5 25.7
00:55 1025 30.27 854 25.22 1 33.8 71 -3.7 25.3
01:00 1025 30.27 854 25.22 1 33.7 71 -3.7 25.3
01:05 1025 30.27 854 25.22 1.1 33.9 72 -3.5 25.8
01:10 1024 30.24 854 25.22 1.1 34 70 -3.7 25.3
01:15 1024 30.24 854 25.22 0.9 33.7 71 -3.8 25.2
01:20 1024 30.24 854 25.22 0.9 33.6 72 -3.7 25.4
01:25 1024 30.24 854 25.22 0.2 32.3 75 -3.8 25.1
01:30 1024 30.24 854 25.22 -0.4 31.3 76 -4 24.7
01:35 1024 30.24 854 25.22 -0.5 31.1 76 -4.3 24.3
01:40 1024 30.24 853 25.19 -0.7 30.7 76 -4.4 24
01:45 1024 30.24 853 25.19 -0.9 30.3 76 -4.6 23.7
01:50 1024 30.24 853 25.19 -1 30.1 77 -4.5 23.9
01:55 1024 30.24 853 25.19 -0.7 30.7 76 -4.4 24.1
02:00 1024 30.24 853 25.19 -0.3 31.4 75 -4.2 24.4
02:05 1024 30.24 854 25.22 -0.4 31.3 75 -4.3 24.2
02:10 1024 30.24 854 25.22 -0.3 31.4 74 -4.4 24.1
02:15 1024 30.24 854 25.22 -0 32 73 -4.3 24.3
02:20 1024 30.24 853 25.19 -0 31.9 73 -4.4 24.2
02:25 1024 30.24 853 25.19 -0.2 31.7 74 -4.3 24.2
02:30 1024 30.24 853 25.19 -0.4 31.3 74 -4.5 23.8
02:35 1024 30.24 853 25.19 -0.5 31.1 74 -4.5 23.9
02:40 1024 30.24 853 25.19 -0.6 30.9 75 -4.6 23.7
02:45 1024 30.24 853 25.19 -0.8 30.5 74 -4.9 23.1
02:50 1024 30.24 853 25.19 -0.5 31 72 -4.9 23.2
02:55 1024 30.24 853 25.19 -0.5 31.1 73 -4.8 23.4
03:00 1024 30.24 853 25.19 -0.5 31 73 -4.7 23.5
03:05 1024 30.24 853 25.19 -0.4 31.3 71 -5 22.9
03:10 1024 30.24 853 25.19 -0.3 31.5 70 -5 23
03:15 1024 30.24 853 25.19 -0 31.9 68 -5.2 22.6
03:20 1024 30.24 853 25.19 0.1 32.3 68 -5.1 22.9
03:25 1024 30.24 853 25.19 0 32.1 69 -5.1 22.9
03:30 1024 30.24 853 25.19 -0.1 31.9 68 -5.3 22.5
03:35 1024 30.24 853 25.19 0.2 32.3 67 -5.3 22.4
03:40 1024 30.24 853 25.19 0.4 32.6 66 -5.2 22.6
03:45 1024 30.24 853 25.19 0.2 32.4 67 -5.3 22.5
03:50 1024 30.24 853 25.19 0.4 32.7 66 -5.2 22.6
03:55 1024 30.24 853 25.19 0.3 32.6 66 -5.3 22.5
04:00 1024 30.24 853 25.19 0.4 32.6 65 -5.4 22.3
04:05 1024 30.24 853 25.19 0.4 32.7 65 -5.4 22.2
04:10 1024 30.24 853 25.19 0.3 32.5 65 -5.5 22.1
04:15 1024 30.24 853 25.19 0.3 32.6 66 -5.4 22.3
04:20 1024 30.24 853 25.19 0.1 32.2 67 -5.4 22.3
04:25 1024 30.24 853 25.19 -0.2 31.6 67 -5.6 21.9
04:30 1024 30.24 853 25.19 -0.2 31.7 66 -5.8 21.6
04:35 1024 30.24 853 25.19 0.2 32.4 64 -5.8 21.6
04:40 1024 30.24 853 25.19 0.2 32.3 65 -5.7 21.8
04:45 1024 30.24 853 25.19 -0.2 31.6 66 -5.8 21.6
04:50 1024 30.24 853 25.19 -0.3 31.4 66 -5.9 21.3
04:55 1024 30.24 853 25.19 -0.2 31.6 67 -5.6 21.9
05:00 1024 30.24 853 25.19 -0.4 31.3 68 -5.6 21.9
05:05 1024 30.24 853 25.19 -0.6 31 69 -5.6 21.8
05:10 1024 30.24 853 25.19 -0.6 31 69 -5.6 21.9
05:15 1024 30.24 853 25.19 -0.9 30.3 71 -5.6 21.9
05:20 1024 30.24 853 25.19 -0.7 30.7 67 -6.1 21.1
05:25 1024 30.24 853 25.19 -0.5 31.2 67 -5.9 21.3
05:30 1024 30.24 853 25.19 -0.6 31 67 -5.9 21.3
05:35 1024 30.24 853 25.19 -0.5 31.1 65 -6.2 20.8
05:40 1024 30.24 854 25.22 -0.6 31 65 -6.2 20.8
05:45 1024 30.24 854 25.22 -0.5 31.1 66 -6.1 21.1
05:50 1024 30.24 854 25.22 -0.7 30.8 67 -6.1 21.1
05:55 1024 30.24 854 25.22 -0.6 30.9 67 -6 21.1
06:00 1024 30.24 854 25.22 -0.6 30.8 68 -5.8 21.5
06:05 1024 30.24 854 25.22 -0.7 30.8 68 -5.9 21.4
06:10 1025 30.27 854 25.22 -0.3 31.5 67 -5.7 21.7
06:15 1025 30.27 854 25.22 -0.1 31.8 66 -5.7 21.7
06:20 1025 30.27 854 25.22 -0.1 31.9 65 -5.8 21.6
06:25 1025 30.27 854 25.22 -0.2 31.7 65 -5.9 21.4
06:30 1025 30.27 854 25.22 -0.2 31.7 65 -5.9 21.3
06:35 1025 30.27 854 25.22 0.1 32.1 64 -6 21.3
06:40 1025 30.27 854 25.22 0.3 32.6 63 -5.9 21.4
06:45 1025 30.27 854 25.22 0.5 32.9 62 -6 21.2
06:50 1025 30.27 854 25.22 1 33.7 60 -6 21.2
06:55 1025 30.27 854 25.22 1.5 34.8 58 -5.8 21.5
07:00 1025 30.27 854 25.22 2 35.6 56 -5.8 21.5
07:05 1025 30.27 854 25.22 2 35.6 57 -5.7 21.8
07:10 1025 30.27 854 25.22 1.9 35.4 56 -5.9 21.5
07:15 1025 30.27 854 25.22 2.5 36.5 54 -5.9 21.3
07:20 1025 30.27 854 25.22 2.9 37.2 52 -6.1 21.1
07:25 1025 30.27 854 25.22 3.4 38.1 51 -5.7 21.7
07:30 1025 30.27 854 25.22 3.8 38.8 50 -5.8 21.5
07:35 1025 30.27 854 25.22 4 39.3 51 -5.2 22.6
07:40 1025 30.27 854 25.22 4.4 39.8 49 -5.4 22.3
07:45 1025 30.27 854 25.22 4.4 39.8 48 -5.8 21.5
07:50 1025 30.27 854 25.22 4.2 39.5 48 -5.8 21.5
07:55 1025 30.27 854 25.22 5 41 46 -5.7 21.7
08:00 1025 30.27 854 25.22 5.3 41.5 47 -5.1 22.7
08:05 1025 30.27 854 25.22 5 41 47 -5.4 22.2
08:10 1025 30.27 854 25.22 5.5 41.9 44 -5.8 21.5
08:15 1025 30.27 854 25.22 5.7 42.3 45 -5.4 22.3
08:20 1025 30.27 854 25.22 6.1 42.9 41 -6.1 21
08:25 1025 30.27 854 25.22 6.3 43.3 41 -6.1 21
08:30 1025 30.27 854 25.22 6.7 44.1 42 -5.4 22.3
08:35 1025 30.27 854 25.22 6.8 44.2 42 -5.4 22.3
08:40 1025 30.27 854 25.22 7 44.6 40 -5.5 22.1
08:45 1025 30.27 854 25.22 7.5 45.5 40 -5.1 22.8
08:50 1025 30.27 854 25.22 7.4 45.3 41 -4.8 23.3
08:55 1025 30.27 854 25.22 6.7 44.1 42 -5.2 22.6
09:00 1025 30.27 854 25.22 7.4 45.3 39 -5.6 22
09:05 1025 30.27 854 25.22 7.3 45.2 41 -5 23
09:10 1025 30.27 854 25.22 7 44.5 41 -5.3 22.5
09:15 1025 30.27 854 25.22 7 44.6 42 -5 22.9
09:20 1025 30.27 854 25.22 6.8 44.2 43 -5 23
09:25 1025 30.27 854 25.22 6.8 44.3 42 -5.2 22.7
09:30 1025 30.27 854 25.22 7.2 44.9 43 -4.6 23.7
09:35 1025 30.27 854 25.22 8 46.4 40 -4.8 23.4
09:40 1025 30.27 854 25.22 8 46.3 38 -5.3 22.5
09:45 1024 30.24 854 25.22 7.8 46 41 -4.7 23.5
09:50 1024 30.24 854 25.22 8.1 46.5 38 -5.2 22.6
09:55 1024 30.24 854 25.22 8.1 46.5 39 -5 22.9
10:00 1024 30.24 854 25.22 8.4 47.2 39 -4.8 23.4
10:05 1024 30.24 854 25.22 9.2 48.5 37 -4.6 23.8
10:10 1024 30.24 854 25.22 9.1 48.3 37 -4.7 23.5
10:15 1024 30.24 854 25.22 9.5 49 35 -5 22.9
10:20 1024 30.24 854 25.22 9.1 48.4 38 -4.6 23.7
10:25 1024 30.24 854 25.22 10.2 50.3 35 -4.6 23.8
10:30 1024 30.24 854 25.22 10.9 51.7 34 -4.3 24.2
10:35 1024 30.24 853 25.19 9.9 49.9 42 -2.2 28
10:40 1024 30.24 853 25.19 9.6 49.2 44 -2.1 28.2
10:45 1024 30.24 853 25.19 8.8 47.9 45 -2.5 27.6
10:50 1024 30.24 853 25.19 8.5 47.3 45 -2.8 27
10:55 1024 30.24 853 25.19 8.7 47.6 44 -3 26.7
11:00 1024 30.24 853 25.19 8.7 47.7 44 -2.8 27
11:05 1024 30.24 853 25.19 9.7 49.5 43 -2.4 27.8
11:10 1024 30.24 853 25.19 10.1 50.1 38 -3.7 25.4
11:15 1024 30.24 853 25.19 10.3 50.5 37 -3.8 25.2
11:20 1024 30.24 853 25.19 10.9 51.5 38 -2.9 26.8
11:25 1024 30.24 853 25.19 10.9 51.6 36 -3.5 25.7
11:30 1024 30.24 853 25.19 11.1 52.1 37 -2.9 26.8
11:35 1024 30.24 853 25.19 10.7 51.2 40 -2.5 27.6
11:40 1023 30.21 853 25.19 10.3 50.6 39 -3 26.6
11:45 1023 30.21 853 25.19 11.2 52.2 40 -1.9 28.6
11:50 1023 30.21 852 25.16 11.7 53 38 -2.3 27.9
11:55 1023 30.21 852 25.16 11.8 53.2 39 -1.8 28.8
12:00 1023 30.21 852 25.16 11.4 52.6 42 -0.9 30.4
12:05 1023 30.21 852 25.16 11.9 53.4 39 -1.5 29.4
12:10 1023 30.21 852 25.16 12.1 53.7 38 -1.8 28.8
12:15 1023 30.21 852 25.16 11.2 52.1 44 -0.7 30.8
12:20 1023 30.21 852 25.16 11 51.7 41 -1.9 28.6
12:25 1023 30.21 852 25.16 11.5 52.7 37 -2.6 27.2
12:30 1023 30.21 852 25.16 11.7 53 42 -0.8 30.6
12:35 1022 30.18 852 25.16 11.9 53.5 35 -2.9 26.8
12:40 1022 30.18 852 25.16 12.5 54.4 34 -3 26.6
12:45 1022 30.18 851 25.13 11.9 53.4 36 -2.8 26.9
12:50 1022 30.18 851 25.13 12.3 54.2 39 -1.2 29.9
12:55 1022 30.18 851 25.13 12.6 54.6 36 -2.1 28.2
13:00 1022 30.18 851 25.13 12.8 55 37 -1.6 29.1
13:05 1022 30.18 851 25.13 13.3 55.9 36 -1.6 29.1
13:10 1022 30.18 851 25.13 12.9 55.1 35 -2.1 28.2
13:15 1022 30.18 851 25.13 12.6 54.6 36 -2.1 28.3
13:20 1022 30.18 851 25.13 13.6 56.6 33 -2.1 28.1
13:25 1022 30.18 851 25.13 13.9 57.1 34 -1.5 29.3
13:30 1022 30.18 851 25.13 14.4 57.9 31 -2.3 27.9
13:35 1022 30.18 851 25.13 14.2 57.5 30 -3.1 26.3
13:40 1021 30.15 851 25.13 13.6 56.5 30 -3.5 25.7
13:45 1021 30.15 851 25.13 14.1 57.4 31 -2.8 27
13:50 1021 30.15 850 25.1 14.3 57.8 31 -2.5 27.4
13:55 1021 30.15 850 25.1 14.7 58.5 30 -2.5 27.5
14:00 1021 30.15 850 25.1 13.8 56.9 33 -2.3 27.9
14:05 1021 30.15 850 25.1 14 57.2 31 -2.7 27.2
14:10 1021 30.15 850 25.1 15.2 59.3 30 -2.1 28.2
14:15 1021 30.15 850 25.1 16.1 60.9 27 -2.7 27.1
14:20 1021 30.15 850 25.1 15.9 60.6 27 -2.8 27
14:25 1021 30.15 850 25.1 16 60.8 27 -3.1 26.5
14:30 1021 30.15 850 25.1 15.8 60.4 27 -3.3 26
14:35 1021 30.15 850 25.1 16.1 60.9 26 -3.2 26.2
14:40 1020 30.12 850 25.1 16.1 61 28 -2.5 27.6
14:45 1020 30.12 850 25.1 16.4 61.5 27 -2.6 27.3
14:50 1020 30.12 850 25.1 16 60.8 26 -3.4 25.8
14:55 1020 30.12 849 25.07 15.3 59.6 26 -3.9 25
15:00 1020 30.12 849 25.07 14.5 58.1 26 -4.7 23.5
15:05 1020 30.12 849 25.07 14.9 58.8 26 -4.4 24.1
15:10 1020 30.12 849 25.07 16.3 61.3 23 -4.7 23.6
15:15 1020 30.12 849 25.07 16.8 62.2 26 -2.6 27.3
15:20 1020 30.12 849 25.07 16.5 61.7 23 -4.9 23.2
15:25 1020 30.12 849 25.07 16.5 61.7 23 -4.6 23.7
15:30 1020 30.12 849 25.07 16.7 62.1 22 -4.9 23.2
15:35 1020 30.12 849 25.07 16.9 62.4 23 -4.2 24.4
15:40 1020 30.12 849 25.07 16.3 61.4 24 -4.3 24.2
15:45 1020 30.12 849 25.07 16.7 62 23 -4.2 24.4
15:50 1020 30.12 849 25.07 17.4 63.4 20 -5.6 21.9
15:55 1020 30.12 849 25.07 17 62.5 22 -4.5 23.9
16:00 1020 30.12 849 25.07 17 62.6 24 -3.6 25.5
16:05 1020 30.12 849 25.07 16.9 62.5 25 -3.1 26.4
16:10 1020 30.12 849 25.07 17.1 62.8 24 -3.3 26.1
16:15 1019 30.09 849 25.07 17.3 63.1 24 -3.6 25.6
16:20 1019 30.09 849 25.07 17.2 63 25 -3 26.5
16:25 1019 30.09 849 25.07 16.6 61.9 25 -3.5 25.6
16:30 1019 30.09 849 25.07 17 62.6 23 -4 24.8
16:35 1019 30.09 848 25.04 16.8 62.3 23 -4.1 24.6
16:40 1019 30.09 848 25.04 16.6 61.9 24 -3.7 25.3
16:45 1019 30.09 848 25.04 16.4 61.5 24 -4.2 24.5
16:50 1019 30.09 848 25.04 16.7 62 23 -4.2 24.5
16:55 1019 30.09 848 25.04 16.9 62.4 23 -4.3 24.2
17:00 1019 30.09 848 25.04 16.8 62.2 23 -4.5 24
17:05 1019 30.09 848 25.04 16.8 62.2 23 -4.3 24.3
17:10 1019 30.09 848 25.04 16.2 61.1 23 -5.1 22.7
17:15 1019 30.09 848 25.04 16 60.7 23 -5.2 22.6
17:20 1019 30.09 848 25.04 16 60.8 22 -5.5 22.1
17:25 1019 30.09 848 25.04 16.4 61.6 21 -6.1 21
17:30 1019 30.09 848 25.04 16 60.8 21 -6.4 20.5
17:35 1019 30.09 848 25.04 15.4 59.8 22 -6.3 20.7
17:40 1019 30.09 848 25.04 15.3 59.5 22 -6.1 21.1
17:45 1019 30.09 848 25.04 15.2 59.4 21 -6.7 20
17:50 1019 30.09 848 25.04 14.8 58.7 22 -6.6 20.1
17:55 1019 30.09 848 25.04 15 58.9 23 -5.9 21.4
18:00 1019 30.09 848 25.04 14.9 58.9 23 -5.9 21.4
18:05 1019 30.09 848 25.04 14.8 58.6 23 -6 21.3
18:10 1019 30.09 848 25.04 14.7 58.5 24 -5.7 21.7
18:15 1019 30.09 848 25.04 14.7 58.5 20 -7.8 18
18:20 1019 30.09 848 25.04 14.6 58.3 22 -6.6 20.1
18:25 1019 30.09 848 25.04 14.5 58.2 23 -6.4 20.5
18:30 1018 30.06 848 25.04 14.5 58 22 -6.9 19.7
18:35 1018 30.06 848 25.04 14.4 57.9 22 -7.2 19.1
18:40 1018 30.06 848 25.04 14.4 57.9 22 -7.1 19.2
18:45 1018 30.06 848 25.04 14.4 57.8 24 -6 21.2
18:50 1018 30.06 848 25.04 14.4 57.9 24 -5.6 21.9
18:55 1018 30.06 847 25.01 14 57.2 31 -3 26.6
19:00 1018 30.06 847 25.01 13.3 56 34 -2 28.5
19:05 1018 30.06 847 25.01 12.7 54.8 35 -2.2 28.1
19:10 1018 30.06 847 25.01 12 53.6 35 -2.8 27
19:15 1018 30.06 847 25.01 11.5 52.7 36 -3 26.6
19:20 1018 30.06 847 25.01 11.1 51.9 37 -3.1 26.5
19:25 1018 30.06 847 25.01 10.7 51.2 38 -2.9 26.7
19:30 1018 30.06 847 25.01 10.3 50.6 39 -2.9 26.9
19:35 1018 30.06 847 25.01 9.8 49.6 41 -2.7 27.2
19:40 1018 30.06 847 25.01 9.5 49.1 42 -2.8 26.9
19:45 1018 30.06 847 25.01 9.4 48.9 46 -1.6 29.1
19:50 1018 30.06 848 25.04 8.9 48 48 -1.5 29.4
19:55 1018 30.06 848 25.04 8.2 46.7 44 -3.3 26.1
20:00 1018 30.06 848 25.04 8 46.5 42 -4.1 24.6
20:05 1018 30.06 848 25.04 8.5 47.3 40 -4.2 24.4
20:10 1018 30.06 848 25.04 8.1 46.7 41 -4.3 24.3
20:15 1018 30.06 848 25.04 7.9 46.2 42 -4.3 24.3
20:20 1018 30.06 848 25.04 7.6 45.7 41 -4.7 23.5
20:25 1018 30.06 848 25.04 7.3 45.1 41 -5.1 22.7
20:30 1019 30.09 848 25.04 7.2 45 38 -6 21.3
20:35 1019 30.09 848 25.04 7.6 45.7 36 -6.6 20.1
20:40 1019 30.09 848 25.04 8.1 46.6 33 -7.1 19.2
20:45 1019 30.09 848 25.04 8.7 47.7 32 -7.1 19.1
20:50 1019 30.09 848 25.04 9.3 48.8 30 -7.4 18.7
20:55 1019 30.09 848 25.04 9.3 48.7 30 -7.4 18.7
21:00 1019 30.09 848 25.04 8.2 46.8 31 -7.8 18
21:05 1019 30.09 848 25.04 7.6 45.7 32 -8.2 17.2
21:10 1019 30.09 848 25.04 7.4 45.3 32 -8.3 17.1
21:15 1019 30.09 848 25.04 7.1 44.8 32 -8.4 16.9
21:20 1019 30.09 848 25.04 7 44.7 33 -8.4 17
21:25 1019 30.09 848 25.04 7.2 45 31 -8.8 16.2
21:30 1019 30.09 848 25.04 7.7 45.8 31 -8.3 17
21:35 1019 30.09 848 25.04 7.7 45.9 31 -8.4 16.8
21:40 1019 30.09 848 25.04 7.3 45.1 31 -8.7 16.3
21:45 1019 30.09 848 25.04 7.1 44.8 33 -8.1 17.4
21:50 1019 30.09 848 25.04 7.1 44.9 31 -8.8 16.1
21:55 1019 30.09 848 25.04 7.4 45.2 31 -8.5 16.7
22:00 1019 30.09 848 25.04 7.4 45.3 32 -8.4 16.9
22:05 1019 30.09 848 25.04 7.1 44.9 32 -8.3 17
22:10 1019 30.09 848 25.04 6.9 44.4 32 -8.6 16.5
22:15 1019 30.09 848 25.04 6.6 43.9 33 -8.5 16.8
22:20 1019 30.09 848 25.04 6.5 43.6 32 -9.1 15.6
22:25 1019 30.09 848 25.04 6.7 44.1 33 -8.4 16.9
22:30 1019 30.09 848 25.04 6.8 44.2 32 -8.9 16
22:35 1019 30.09 848 25.04 6.9 44.4 32 -8.5 16.7
22:40 1019 30.09 848 25.04 6.3 43.4 35 -7.9 17.8
22:45 1019 30.09 848 25.04 5.8 42.4 38 -7.5 18.5
22:50 1019 30.09 848 25.04 5.6 42 38 -7.7 18.2
22:55 1019 30.09 848 25.04 5.4 41.8 36 -8.4 16.8
23:00 1019 30.09 848 25.04 5.9 42.5 34 -8.7 16.4
23:05 1019 30.09 848 25.04 6.1 42.9 33 -8.9 16
23:10 1019 30.09 848 25.04 6.2 43.1 34 -8.7 16.4
23:15 1019 30.09 848 25.04 6.1 42.9 34 -8.7 16.4
23:20 1019 30.09 848 25.04 6 42.8 33 -9.1 15.7
23:25 1019 30.09 848 25.04 6.3 43.3 32 -9.1 15.5
23:30 1019 30.09 848 25.04 6.1 43 34 -8.7 16.4
23:35 1019 30.09 848 25.04 5.8 42.4 34 -8.8 16.1
23:40 1019 30.09 848 25.04 5.7 42.3 34 -8.9 15.9
23:45 1019 30.09 848 25.04 5.7 42.2 34 -9.1 15.7
23:50 1019 30.09 848 25.04 5.5 42 35 -8.6 16.5
23:55 1019 30.09 848 25.04 5.2 41.4 36 -8.7 16.4
24:00 1019 30.09 848 25.04 5.4 41.8 34 -9.2 15.5